sensor_id;sensor_type;location;lat;lon;timestamp;P1;durP1;ratioP1;P2;durP2;ratioP2
4377;SDS011;2203;53.686;9.994;2022-10-16T00:01:13;10.70;;;6.13;;
4377;SDS011;2203;53.686;9.994;2022-10-16T00:03:40;9.57;;;6.23;;
4377;SDS011;2203;53.686;9.994;2022-10-16T00:06:07;13.13;;;6.87;;
4377;SDS011;2203;53.686;9.994;2022-10-16T00:08:33;10.30;;;6.07;;
4377;SDS011;2203;53.686;9.994;2022-10-16T00:10:59;13.67;;;6.87;;
4377;SDS011;2203;53.686;9.994;2022-10-16T00:13:37;11.23;;;6.70;;
4377;SDS011;2203;53.686;9.994;2022-10-16T00:16:04;13.30;;;6.43;;
4377;SDS011;2203;53.686;9.994;2022-10-16T00:18:30;10.60;;;7.63;;
4377;SDS011;2203;53.686;9.994;2022-10-16T00:21:01;7.93;;;6.30;;
4377;SDS011;2203;53.686;9.994;2022-10-16T00:23:36;9.40;;;5.30;;
4377;SDS011;2203;53.686;9.994;2022-10-16T00:26:03;13.40;;;6.73;;
4377;SDS011;2203;53.686;9.994;2022-10-16T00:28:31;8.40;;;5.70;;
4377;SDS011;2203;53.686;9.994;2022-10-16T00:30:56;13.43;;;6.43;;
4377;SDS011;2203;53.686;9.994;2022-10-16T00:33:22;8.57;;;6.33;;
4377;SDS011;2203;53.686;9.994;2022-10-16T00:35:48;9.83;;;5.30;;
4377;SDS011;2203;53.686;9.994;2022-10-16T00:38:14;11.20;;;5.60;;
4377;SDS011;2203;53.686;9.994;2022-10-16T00:40:39;10.07;;;5.20;;
4377;SDS011;2203;53.686;9.994;2022-10-16T00:43:31;10.77;;;4.80;;
4377;SDS011;2203;53.686;9.994;2022-10-16T00:48:38;6.53;;;3.73;;
4377;SDS011;2203;53.686;9.994;2022-10-16T00:51:04;8.97;;;4.60;;
4377;SDS011;2203;53.686;9.994;2022-10-16T00:53:31;6.33;;;3.80;;
4377;SDS011;2203;53.686;9.994;2022-10-16T00:55:57;13.20;;;4.10;;
4377;SDS011;2203;53.686;9.994;2022-10-16T00:58:22;12.50;;;3.60;;
4377;SDS011;2203;53.686;9.994;2022-10-16T01:00:48;7.23;;;3.90;;
4377;SDS011;2203;53.686;9.994;2022-10-16T01:03:27;8.80;;;3.50;;
4377;SDS011;2203;53.686;9.994;2022-10-16T01:06:15;8.90;;;3.80;;
4377;SDS011;2203;53.686;9.994;2022-10-16T01:11:29;10.57;;;3.30;;
4377;SDS011;2203;53.686;9.994;2022-10-16T01:14:06;4.97;;;3.13;;
4377;SDS011;2203;53.686;9.994;2022-10-16T01:19:20;3.33;;;2.40;;
4377;SDS011;2203;53.686;9.994;2022-10-16T01:21:50;5.57;;;2.77;;
4377;SDS011;2203;53.686;9.994;2022-10-16T01:24:31;6.83;;;2.97;;
4377;SDS011;2203;53.686;9.994;2022-10-16T01:29:49;14.53;;;2.53;;
4377;SDS011;2203;53.686;9.994;2022-10-16T01:34:59;5.00;;;2.37;;
4377;SDS011;2203;53.686;9.994;2022-10-16T01:37:31;10.80;;;2.57;;
4377;SDS011;2203;53.686;9.994;2022-10-16T01:40:00;12.17;;;2.70;;
4377;SDS011;2203;53.686;9.994;2022-10-16T01:42:34;2.97;;;2.67;;
4377;SDS011;2203;53.686;9.994;2022-10-16T01:45:00;8.03;;;2.67;;
4377;SDS011;2203;53.686;9.994;2022-10-16T01:47:28;3.97;;;2.23;;
4377;SDS011;2203;53.686;9.994;2022-10-16T01:49:55;5.97;;;2.40;;
4377;SDS011;2203;53.686;9.994;2022-10-16T01:52:21;6.00;;;2.67;;
4377;SDS011;2203;53.686;9.994;2022-10-16T01:54:49;8.43;;;2.30;;
4377;SDS011;2203;53.686;9.994;2022-10-16T01:57:16;14.53;;;1.90;;
4377;SDS011;2203;53.686;9.994;2022-10-16T01:59:47;3.73;;;2.40;;
4377;SDS011;2203;53.686;9.994;2022-10-16T02:02:15;8.13;;;2.63;;
4377;SDS011;2203;53.686;9.994;2022-10-16T02:04:43;6.17;;;2.13;;
4377;SDS011;2203;53.686;9.994;2022-10-16T02:07:11;5.67;;;3.27;;
4377;SDS011;2203;53.686;9.994;2022-10-16T02:09:37;5.83;;;2.37;;
4377;SDS011;2203;53.686;9.994;2022-10-16T02:12:06;4.10;;;2.03;;
4377;SDS011;2203;53.686;9.994;2022-10-16T02:14:36;6.53;;;2.10;;
4377;SDS011;2203;53.686;9.994;2022-10-16T02:17:09;4.93;;;2.27;;
4377;SDS011;2203;53.686;9.994;2022-10-16T02:19:36;7.53;;;2.27;;
4377;SDS011;2203;53.686;9.994;2022-10-16T02:22:02;4.63;;;1.90;;
4377;SDS011;2203;53.686;9.994;2022-10-16T02:29:26;9.57;;;2.90;;
4377;SDS011;2203;53.686;9.994;2022-10-16T02:31:56;4.80;;;1.90;;
4377;SDS011;2203;53.686;9.994;2022-10-16T02:34:24;3.63;;;1.87;;
4377;SDS011;2203;53.686;9.994;2022-10-16T02:36:50;6.23;;;1.90;;
4377;SDS011;2203;53.686;9.994;2022-10-16T02:39:16;5.00;;;2.10;;
4377;SDS011;2203;53.686;9.994;2022-10-16T02:41:43;5.23;;;1.87;;
4377;SDS011;2203;53.686;9.994;2022-10-16T02:44:08;5.23;;;2.00;;
4377;SDS011;2203;53.686;9.994;2022-10-16T02:46:34;2.67;;;1.80;;
4377;SDS011;2203;53.686;9.994;2022-10-16T02:48:59;3.90;;;2.57;;
4377;SDS011;2203;53.686;9.994;2022-10-16T02:51:25;5.57;;;1.70;;
4377;SDS011;2203;53.686;9.994;2022-10-16T02:53:50;2.03;;;1.70;;
4377;SDS011;2203;53.686;9.994;2022-10-16T02:56:16;4.13;;;1.80;;
4377;SDS011;2203;53.686;9.994;2022-10-16T02:58:41;6.33;;;2.07;;
4377;SDS011;2203;53.686;9.994;2022-10-16T03:01:07;11.03;;;2.40;;
4377;SDS011;2203;53.686;9.994;2022-10-16T03:03:33;5.77;;;2.00;;
4377;SDS011;2203;53.686;9.994;2022-10-16T03:05:58;15.37;;;2.47;;
4377;SDS011;2203;53.686;9.994;2022-10-16T03:08:23;5.33;;;1.90;;
4377;SDS011;2203;53.686;9.994;2022-10-16T03:10:50;3.57;;;1.73;;
4377;SDS011;2203;53.686;9.994;2022-10-16T03:13:16;3.90;;;1.53;;
4377;SDS011;2203;53.686;9.994;2022-10-16T03:15:41;3.00;;;1.60;;
4377;SDS011;2203;53.686;9.994;2022-10-16T03:18:06;8.47;;;1.50;;
4377;SDS011;2203;53.686;9.994;2022-10-16T03:20:32;4.43;;;1.70;;
4377;SDS011;2203;53.686;9.994;2022-10-16T03:22:57;3.73;;;1.80;;
4377;SDS011;2203;53.686;9.994;2022-10-16T03:25:22;4.90;;;1.50;;
4377;SDS011;2203;53.686;9.994;2022-10-16T03:27:49;6.10;;;1.87;;
4377;SDS011;2203;53.686;9.994;2022-10-16T03:30:14;2.67;;;1.53;;
4377;SDS011;2203;53.686;9.994;2022-10-16T03:32:40;7.50;;;1.57;;
4377;SDS011;2203;53.686;9.994;2022-10-16T03:35:06;9.63;;;1.73;;
4377;SDS011;2203;53.686;9.994;2022-10-16T03:37:32;7.90;;;2.07;;
4377;SDS011;2203;53.686;9.994;2022-10-16T03:39:57;5.07;;;1.40;;
4377;SDS011;2203;53.686;9.994;2022-10-16T03:42:22;1.87;;;1.67;;
4377;SDS011;2203;53.686;9.994;2022-10-16T03:44:49;5.17;;;1.90;;
4377;SDS011;2203;53.686;9.994;2022-10-16T03:47:14;4.80;;;1.40;;
4377;SDS011;2203;53.686;9.994;2022-10-16T03:49:40;3.53;;;1.73;;
4377;SDS011;2203;53.686;9.994;2022-10-16T03:52:05;7.10;;;1.90;;
4377;SDS011;2203;53.686;9.994;2022-10-16T03:54:30;2.20;;;1.43;;
4377;SDS011;2203;53.686;9.994;2022-10-16T03:56:56;10.43;;;1.70;;
4377;SDS011;2203;53.686;9.994;2022-10-16T03:59:21;11.37;;;2.00;;
4377;SDS011;2203;53.686;9.994;2022-10-16T04:01:46;4.20;;;1.93;;
4377;SDS011;2203;53.686;9.994;2022-10-16T04:04:12;9.23;;;3.20;;
4377;SDS011;2203;53.686;9.994;2022-10-16T04:06:37;4.00;;;1.80;;
4377;SDS011;2203;53.686;9.994;2022-10-16T04:09:03;8.27;;;2.00;;
4377;SDS011;2203;53.686;9.994;2022-10-16T04:11:28;6.63;;;1.60;;
4377;SDS011;2203;53.686;9.994;2022-10-16T04:13:54;8.80;;;2.23;;
4377;SDS011;2203;53.686;9.994;2022-10-16T04:16:19;9.67;;;1.97;;
4377;SDS011;2203;53.686;9.994;2022-10-16T04:18:45;7.20;;;1.70;;
4377;SDS011;2203;53.686;9.994;2022-10-16T04:21:10;18.83;;;1.70;;
4377;SDS011;2203;53.686;9.994;2022-10-16T04:23:35;5.73;;;2.00;;
4377;SDS011;2203;53.686;9.994;2022-10-16T04:26:01;10.70;;;1.73;;
4377;SDS011;2203;53.686;9.994;2022-10-16T04:28:27;18.50;;;1.97;;
4377;SDS011;2203;53.686;9.994;2022-10-16T04:30:52;5.10;;;1.60;;
4377;SDS011;2203;53.686;9.994;2022-10-16T04:33:18;4.47;;;1.87;;
4377;SDS011;2203;53.686;9.994;2022-10-16T04:35:43;7.90;;;2.33;;
4377;SDS011;2203;53.686;9.994;2022-10-16T04:38:09;5.40;;;1.63;;
4377;SDS011;2203;53.686;9.994;2022-10-16T04:40:34;6.53;;;1.73;;
4377;SDS011;2203;53.686;9.994;2022-10-16T04:43:02;6.77;;;1.70;;
4377;SDS011;2203;53.686;9.994;2022-10-16T04:45:28;5.70;;;1.77;;
4377;SDS011;2203;53.686;9.994;2022-10-16T04:47:56;2.53;;;1.10;;
4377;SDS011;2203;53.686;9.994;2022-10-16T04:50:22;9.13;;;1.80;;
4377;SDS011;2203;53.686;9.994;2022-10-16T04:52:47;6.93;;;1.93;;
4377;SDS011;2203;53.686;9.994;2022-10-16T04:55:13;4.30;;;1.80;;
4377;SDS011;2203;53.686;9.994;2022-10-16T04:57:38;13.50;;;1.70;;
4377;SDS011;2203;53.686;9.994;2022-10-16T05:00:04;5.97;;;1.67;;
4377;SDS011;2203;53.686;9.994;2022-10-16T05:02:29;5.03;;;1.50;;
4377;SDS011;2203;53.686;9.994;2022-10-16T05:04:55;5.10;;;2.13;;
4377;SDS011;2203;53.686;9.994;2022-10-16T05:07:20;6.67;;;1.57;;
4377;SDS011;2203;53.686;9.994;2022-10-16T05:09:46;11.13;;;1.73;;
4377;SDS011;2203;53.686;9.994;2022-10-16T05:12:11;10.97;;;1.90;;
4377;SDS011;2203;53.686;9.994;2022-10-16T05:14:36;4.53;;;2.00;;
4377;SDS011;2203;53.686;9.994;2022-10-16T05:17:02;4.57;;;1.97;;
4377;SDS011;2203;53.686;9.994;2022-10-16T05:19:27;3.60;;;2.00;;
4377;SDS011;2203;53.686;9.994;2022-10-16T05:21:53;4.97;;;1.63;;
4377;SDS011;2203;53.686;9.994;2022-10-16T05:24:18;6.03;;;2.30;;
4377;SDS011;2203;53.686;9.994;2022-10-16T05:26:45;8.63;;;1.90;;
4377;SDS011;2203;53.686;9.994;2022-10-16T05:29:10;10.10;;;2.80;;
4377;SDS011;2203;53.686;9.994;2022-10-16T05:31:35;8.83;;;2.80;;
4377;SDS011;2203;53.686;9.994;2022-10-16T05:34:01;3.97;;;2.30;;
4377;SDS011;2203;53.686;9.994;2022-10-16T05:36:27;9.60;;;3.07;;
4377;SDS011;2203;53.686;9.994;2022-10-16T05:38:52;7.67;;;2.77;;
4377;SDS011;2203;53.686;9.994;2022-10-16T05:41:18;7.33;;;2.77;;
4377;SDS011;2203;53.686;9.994;2022-10-16T05:43:48;12.70;;;3.70;;
4377;SDS011;2203;53.686;9.994;2022-10-16T05:46:14;4.90;;;2.93;;
4377;SDS011;2203;53.686;9.994;2022-10-16T05:48:39;3.50;;;2.10;;
4377;SDS011;2203;53.686;9.994;2022-10-16T05:51:06;5.30;;;3.13;;
4377;SDS011;2203;53.686;9.994;2022-10-16T05:53:33;6.60;;;2.70;;
4377;SDS011;2203;53.686;9.994;2022-10-16T05:56:00;6.20;;;3.20;;
4377;SDS011;2203;53.686;9.994;2022-10-16T05:58:28;5.60;;;2.97;;
4377;SDS011;2203;53.686;9.994;2022-10-16T06:00:55;10.70;;;3.47;;
4377;SDS011;2203;53.686;9.994;2022-10-16T06:03:21;11.53;;;3.37;;
4377;SDS011;2203;53.686;9.994;2022-10-16T06:05:47;11.07;;;3.23;;
4377;SDS011;2203;53.686;9.994;2022-10-16T06:08:12;17.03;;;3.50;;
4377;SDS011;2203;53.686;9.994;2022-10-16T06:10:37;10.30;;;3.50;;
4377;SDS011;2203;53.686;9.994;2022-10-16T06:13:03;8.40;;;3.10;;
4377;SDS011;2203;53.686;9.994;2022-10-16T06:15:28;10.20;;;2.90;;
4377;SDS011;2203;53.686;9.994;2022-10-16T06:17:54;5.93;;;2.10;;
4377;SDS011;2203;53.686;9.994;2022-10-16T06:20:19;13.63;;;2.93;;
4377;SDS011;2203;53.686;9.994;2022-10-16T06:22:45;4.43;;;2.07;;
4377;SDS011;2203;53.686;9.994;2022-10-16T06:25:10;11.57;;;3.03;;
4377;SDS011;2203;53.686;9.994;2022-10-16T06:27:35;7.20;;;2.23;;
4377;SDS011;2203;53.686;9.994;2022-10-16T06:30:01;6.80;;;2.53;;
4377;SDS011;2203;53.686;9.994;2022-10-16T06:32:27;15.27;;;3.10;;
4377;SDS011;2203;53.686;9.994;2022-10-16T06:34:52;20.30;;;2.70;;
4377;SDS011;2203;53.686;9.994;2022-10-16T06:37:18;6.77;;;3.00;;
4377;SDS011;2203;53.686;9.994;2022-10-16T06:39:43;7.60;;;2.63;;
4377;SDS011;2203;53.686;9.994;2022-10-16T06:42:08;8.37;;;2.60;;
4377;SDS011;2203;53.686;9.994;2022-10-16T06:44:34;8.83;;;3.50;;
4377;SDS011;2203;53.686;9.994;2022-10-16T06:46:59;15.90;;;2.83;;
4377;SDS011;2203;53.686;9.994;2022-10-16T06:49:24;15.53;;;3.27;;
4377;SDS011;2203;53.686;9.994;2022-10-16T06:51:50;6.20;;;2.80;;
4377;SDS011;2203;53.686;9.994;2022-10-16T06:54:15;6.63;;;2.40;;
4377;SDS011;2203;53.686;9.994;2022-10-16T06:56:41;14.83;;;3.03;;
4377;SDS011;2203;53.686;9.994;2022-10-16T06:59:06;8.43;;;2.50;;
4377;SDS011;2203;53.686;9.994;2022-10-16T07:01:32;6.87;;;2.23;;
4377;SDS011;2203;53.686;9.994;2022-10-16T07:03:58;9.50;;;2.73;;
4377;SDS011;2203;53.686;9.994;2022-10-16T07:06:24;6.40;;;2.33;;
4377;SDS011;2203;53.686;9.994;2022-10-16T07:08:51;6.40;;;2.50;;
4377;SDS011;2203;53.686;9.994;2022-10-16T07:11:17;4.87;;;2.60;;
4377;SDS011;2203;53.686;9.994;2022-10-16T07:13:44;8.93;;;2.80;;
4377;SDS011;2203;53.686;9.994;2022-10-16T07:16:11;6.60;;;2.93;;
4377;SDS011;2203;53.686;9.994;2022-10-16T07:18:39;14.97;;;3.30;;
4377;SDS011;2203;53.686;9.994;2022-10-16T07:21:10;5.77;;;2.43;;
4377;SDS011;2203;53.686;9.994;2022-10-16T07:23:40;6.70;;;3.00;;
4377;SDS011;2203;53.686;9.994;2022-10-16T07:26:07;17.03;;;2.93;;
4377;SDS011;2203;53.686;9.994;2022-10-16T07:28:33;7.90;;;3.37;;
4377;SDS011;2203;53.686;9.994;2022-10-16T07:31:02;7.43;;;3.27;;
4377;SDS011;2203;53.686;9.994;2022-10-16T07:33:29;8.17;;;2.63;;
4377;SDS011;2203;53.686;9.994;2022-10-16T07:35:54;7.03;;;3.00;;
4377;SDS011;2203;53.686;9.994;2022-10-16T07:38:21;6.80;;;3.50;;
4377;SDS011;2203;53.686;9.994;2022-10-16T07:40:46;3.40;;;3.03;;
4377;SDS011;2203;53.686;9.994;2022-10-16T07:43:12;7.73;;;3.17;;
4377;SDS011;2203;53.686;9.994;2022-10-16T07:45:45;18.30;;;3.10;;
4377;SDS011;2203;53.686;9.994;2022-10-16T07:48:12;10.23;;;3.07;;
4377;SDS011;2203;53.686;9.994;2022-10-16T07:50:37;6.40;;;3.60;;
4377;SDS011;2203;53.686;9.994;2022-10-16T07:53:03;11.57;;;3.07;;
4377;SDS011;2203;53.686;9.994;2022-10-16T07:55:29;5.30;;;2.90;;
4377;SDS011;2203;53.686;9.994;2022-10-16T07:57:54;12.50;;;3.30;;
4377;SDS011;2203;53.686;9.994;2022-10-16T08:00:20;11.00;;;3.07;;
4377;SDS011;2203;53.686;9.994;2022-10-16T08:02:45;6.00;;;2.80;;
4377;SDS011;2203;53.686;9.994;2022-10-16T08:05:10;12.33;;;3.03;;
4377;SDS011;2203;53.686;9.994;2022-10-16T08:07:36;9.97;;;3.13;;
4377;SDS011;2203;53.686;9.994;2022-10-16T08:10:02;13.40;;;3.77;;
4377;SDS011;2203;53.686;9.994;2022-10-16T08:12:27;11.50;;;3.50;;
4377;SDS011;2203;53.686;9.994;2022-10-16T08:14:53;14.90;;;3.50;;
4377;SDS011;2203;53.686;9.994;2022-10-16T08:17:18;6.57;;;3.27;;
4377;SDS011;2203;53.686;9.994;2022-10-16T08:19:44;7.37;;;3.77;;
4377;SDS011;2203;53.686;9.994;2022-10-16T08:22:11;7.30;;;2.53;;
4377;SDS011;2203;53.686;9.994;2022-10-16T08:24:36;7.37;;;3.30;;
4377;SDS011;2203;53.686;9.994;2022-10-16T08:27:02;6.50;;;3.30;;
4377;SDS011;2203;53.686;9.994;2022-10-16T08:29:28;10.40;;;3.30;;
4377;SDS011;2203;53.686;9.994;2022-10-16T08:31:53;8.00;;;3.40;;
4377;SDS011;2203;53.686;9.994;2022-10-16T08:34:19;7.77;;;3.67;;
4377;SDS011;2203;53.686;9.994;2022-10-16T08:36:44;8.50;;;3.80;;
4377;SDS011;2203;53.686;9.994;2022-10-16T08:39:10;6.20;;;3.30;;
4377;SDS011;2203;53.686;9.994;2022-10-16T08:49:21;10.43;;;3.70;;
4377;SDS011;2203;53.686;9.994;2022-10-16T08:51:49;10.27;;;3.50;;
4377;SDS011;2203;53.686;9.994;2022-10-16T08:57:16;8.27;;;3.43;;
4377;SDS011;2203;53.686;9.994;2022-10-16T08:59:44;7.57;;;2.70;;
4377;SDS011;2203;53.686;9.994;2022-10-16T09:02:53;13.33;;;3.17;;
4377;SDS011;2203;53.686;9.994;2022-10-16T09:08:28;8.10;;;2.80;;
4377;SDS011;2203;53.686;9.994;2022-10-16T09:13:39;10.47;;;3.23;;
4377;SDS011;2203;53.686;9.994;2022-10-16T09:16:14;6.00;;;2.70;;
4377;SDS011;2203;53.686;9.994;2022-10-16T09:23:42;11.40;;;2.30;;
4377;SDS011;2203;53.686;9.994;2022-10-16T09:26:12;11.50;;;2.70;;
4377;SDS011;2203;53.686;9.994;2022-10-16T09:28:39;9.37;;;2.07;;
4377;SDS011;2203;53.686;9.994;2022-10-16T09:31:05;6.63;;;2.03;;
4377;SDS011;2203;53.686;9.994;2022-10-16T09:33:33;5.10;;;2.40;;
4377;SDS011;2203;53.686;9.994;2022-10-16T09:36:00;10.03;;;2.93;;
4377;SDS011;2203;53.686;9.994;2022-10-16T09:41:34;14.13;;;2.20;;
4377;SDS011;2203;53.686;9.994;2022-10-16T09:48:53;8.13;;;2.17;;
4377;SDS011;2203;53.686;9.994;2022-10-16T09:51:25;7.27;;;1.70;;
4377;SDS011;2203;53.686;9.994;2022-10-16T09:54:20;8.93;;;3.27;;
4377;SDS011;2203;53.686;9.994;2022-10-16T09:56:45;5.83;;;1.93;;
4377;SDS011;2203;53.686;9.994;2022-10-16T10:01:41;13.40;;;2.10;;
4377;SDS011;2203;53.686;9.994;2022-10-16T10:04:10;10.63;;;2.00;;
4377;SDS011;2203;53.686;9.994;2022-10-16T10:06:45;6.97;;;1.70;;
4377;SDS011;2203;53.686;9.994;2022-10-16T10:09:16;14.23;;;2.30;;
4377;SDS011;2203;53.686;9.994;2022-10-16T10:11:45;11.03;;;2.30;;
4377;SDS011;2203;53.686;9.994;2022-10-16T10:14:17;5.30;;;1.83;;
4377;SDS011;2203;53.686;9.994;2022-10-16T10:19:40;8.93;;;1.87;;
4377;SDS011;2203;53.686;9.994;2022-10-16T10:25:07;13.33;;;4.10;;
4377;SDS011;2203;53.686;9.994;2022-10-16T10:27:52;12.20;;;3.27;;
4377;SDS011;2203;53.686;9.994;2022-10-16T10:30:24;10.23;;;2.27;;
4377;SDS011;2203;53.686;9.994;2022-10-16T10:35:48;5.40;;;1.67;;
4377;SDS011;2203;53.686;9.994;2022-10-16T10:38:37;8.60;;;1.97;;
4377;SDS011;2203;53.686;9.994;2022-10-16T10:46:51;7.20;;;1.53;;
4377;SDS011;2203;53.686;9.994;2022-10-16T11:00:28;7.10;;;2.10;;
4377;SDS011;2203;53.686;9.994;2022-10-16T11:05:52;6.90;;;1.80;;
4377;SDS011;2203;53.686;9.994;2022-10-16T11:08:43;8.57;;;1.83;;
4377;SDS011;2203;53.686;9.994;2022-10-16T11:11:16;13.37;;;1.73;;
4377;SDS011;2203;53.686;9.994;2022-10-16T11:14:09;10.60;;;1.63;;
4377;SDS011;2203;53.686;9.994;2022-10-16T11:16:39;6.10;;;1.80;;
4377;SDS011;2203;53.686;9.994;2022-10-16T11:21:44;6.63;;;1.60;;
4377;SDS011;2203;53.686;9.994;2022-10-16T11:24:18;7.10;;;1.60;;
4377;SDS011;2203;53.686;9.994;2022-10-16T11:26:46;3.17;;;1.20;;
4377;SDS011;2203;53.686;9.994;2022-10-16T11:29:31;5.57;;;1.50;;
4377;SDS011;2203;53.686;9.994;2022-10-16T11:31:58;4.73;;;1.10;;
4377;SDS011;2203;53.686;9.994;2022-10-16T11:34:32;13.00;;;1.67;;
4377;SDS011;2203;53.686;9.994;2022-10-16T11:39:50;5.03;;;1.73;;
4377;SDS011;2203;53.686;9.994;2022-10-16T11:42:19;11.93;;;1.83;;
4377;SDS011;2203;53.686;9.994;2022-10-16T11:44:57;12.13;;;1.27;;
4377;SDS011;2203;53.686;9.994;2022-10-16T11:50:38;8.10;;;1.30;;
4377;SDS011;2203;53.686;9.994;2022-10-16T11:55:40;6.57;;;2.03;;
4377;SDS011;2203;53.686;9.994;2022-10-16T11:58:13;8.40;;;1.40;;
4377;SDS011;2203;53.686;9.994;2022-10-16T12:08:25;8.37;;;2.30;;
4377;SDS011;2203;53.686;9.994;2022-10-16T12:10:51;7.33;;;1.50;;
4377;SDS011;2203;53.686;9.994;2022-10-16T12:18:37;23.47;;;1.50;;
4377;SDS011;2203;53.686;9.994;2022-10-16T12:21:03;5.70;;;1.20;;
4377;SDS011;2203;53.686;9.994;2022-10-16T12:23:32;4.93;;;2.80;;
4377;SDS011;2203;53.686;9.994;2022-10-16T12:26:01;13.97;;;1.30;;
4377;SDS011;2203;53.686;9.994;2022-10-16T12:28:28;16.23;;;1.40;;
4377;SDS011;2203;53.686;9.994;2022-10-16T12:30:56;14.30;;;2.03;;
4377;SDS011;2203;53.686;9.994;2022-10-16T12:33:24;4.20;;;1.60;;
4377;SDS011;2203;53.686;9.994;2022-10-16T12:35:50;13.30;;;2.47;;
4377;SDS011;2203;53.686;9.994;2022-10-16T12:38:20;9.50;;;1.83;;
4377;SDS011;2203;53.686;9.994;2022-10-16T12:40:54;9.30;;;1.40;;
4377;SDS011;2203;53.686;9.994;2022-10-16T12:43:35;9.73;;;1.40;;
4377;SDS011;2203;53.686;9.994;2022-10-16T12:48:34;13.10;;;1.70;;
4377;SDS011;2203;53.686;9.994;2022-10-16T13:13:18;7.40;;;1.10;;
4377;SDS011;2203;53.686;9.994;2022-10-16T13:15:57;6.57;;;1.60;;
4377;SDS011;2203;53.686;9.994;2022-10-16T13:18:46;7.43;;;1.50;;
4377;SDS011;2203;53.686;9.994;2022-10-16T13:21:37;12.13;;;1.40;;
4377;SDS011;2203;53.686;9.994;2022-10-16T13:29:22;7.03;;;1.40;;
4377;SDS011;2203;53.686;9.994;2022-10-16T13:31:48;10.40;;;1.60;;
4377;SDS011;2203;53.686;9.994;2022-10-16T13:34:15;10.67;;;1.37;;
4377;SDS011;2203;53.686;9.994;2022-10-16T13:36:52;15.50;;;2.40;;
4377;SDS011;2203;53.686;9.994;2022-10-16T13:42:00;6.90;;;1.50;;
4377;SDS011;2203;53.686;9.994;2022-10-16T13:44:28;6.77;;;1.37;;
4377;SDS011;2203;53.686;9.994;2022-10-16T13:46:59;11.80;;;1.40;;
4377;SDS011;2203;53.686;9.994;2022-10-16T13:49:25;7.20;;;1.40;;
4377;SDS011;2203;53.686;9.994;2022-10-16T13:51:58;10.23;;;2.20;;
4377;SDS011;2203;53.686;9.994;2022-10-16T13:54:24;9.90;;;1.67;;
4377;SDS011;2203;53.686;9.994;2022-10-16T13:56:51;7.40;;;1.50;;
4377;SDS011;2203;53.686;9.994;2022-10-16T13:59:27;13.80;;;2.40;;
4377;SDS011;2203;53.686;9.994;2022-10-16T14:01:58;10.20;;;1.80;;
4377;SDS011;2203;53.686;9.994;2022-10-16T14:04:25;20.93;;;1.83;;
4377;SDS011;2203;53.686;9.994;2022-10-16T14:06:54;6.70;;;2.13;;
4377;SDS011;2203;53.686;9.994;2022-10-16T14:09:23;17.23;;;1.80;;
4377;SDS011;2203;53.686;9.994;2022-10-16T14:11:53;7.00;;;1.90;;
4377;SDS011;2203;53.686;9.994;2022-10-16T14:14:20;9.27;;;2.33;;
4377;SDS011;2203;53.686;9.994;2022-10-16T14:16:45;10.03;;;1.40;;
4377;SDS011;2203;53.686;9.994;2022-10-16T14:19:25;5.33;;;1.67;;
4377;SDS011;2203;53.686;9.994;2022-10-16T14:21:51;6.13;;;1.70;;
4377;SDS011;2203;53.686;9.994;2022-10-16T14:24:31;6.47;;;1.57;;
4377;SDS011;2203;53.686;9.994;2022-10-16T14:26:58;9.47;;;1.80;;
4377;SDS011;2203;53.686;9.994;2022-10-16T14:29:25;5.30;;;1.30;;
4377;SDS011;2203;53.686;9.994;2022-10-16T14:31:56;5.90;;;1.10;;
4377;SDS011;2203;53.686;9.994;2022-10-16T14:34:31;11.03;;;1.70;;
4377;SDS011;2203;53.686;9.994;2022-10-16T14:37:06;9.50;;;2.63;;
4377;SDS011;2203;53.686;9.994;2022-10-16T14:39:32;5.60;;;1.40;;
4377;SDS011;2203;53.686;9.994;2022-10-16T14:41:58;16.20;;;1.93;;
4377;SDS011;2203;53.686;9.994;2022-10-16T14:44:33;5.87;;;1.60;;
4377;SDS011;2203;53.686;9.994;2022-10-16T14:47:05;12.40;;;1.70;;
4377;SDS011;2203;53.686;9.994;2022-10-16T14:49:32;7.33;;;1.30;;
4377;SDS011;2203;53.686;9.994;2022-10-16T14:51:58;9.07;;;2.57;;
4377;SDS011;2203;53.686;9.994;2022-10-16T14:54:23;6.73;;;1.43;;
4377;SDS011;2203;53.686;9.994;2022-10-16T14:56:53;9.17;;;1.70;;
4377;SDS011;2203;53.686;9.994;2022-10-16T14:59:34;6.20;;;1.07;;
4377;SDS011;2203;53.686;9.994;2022-10-16T15:04:48;11.33;;;2.00;;
4377;SDS011;2203;53.686;9.994;2022-10-16T15:07:14;5.00;;;1.30;;
4377;SDS011;2203;53.686;9.994;2022-10-16T15:09:39;8.83;;;1.93;;
4377;SDS011;2203;53.686;9.994;2022-10-16T15:12:04;6.27;;;1.57;;
4377;SDS011;2203;53.686;9.994;2022-10-16T15:14:30;7.10;;;2.03;;
4377;SDS011;2203;53.686;9.994;2022-10-16T15:16:55;4.60;;;1.60;;
4377;SDS011;2203;53.686;9.994;2022-10-16T15:19:21;4.60;;;1.23;;
4377;SDS011;2203;53.686;9.994;2022-10-16T15:21:46;5.80;;;1.60;;
4377;SDS011;2203;53.686;9.994;2022-10-16T15:24:12;9.87;;;1.53;;
4377;SDS011;2203;53.686;9.994;2022-10-16T15:26:38;8.53;;;1.63;;
4377;SDS011;2203;53.686;9.994;2022-10-16T15:29:04;9.47;;;1.80;;
4377;SDS011;2203;53.686;9.994;2022-10-16T15:31:29;7.87;;;1.77;;
4377;SDS011;2203;53.686;9.994;2022-10-16T15:33:55;4.77;;;1.37;;
4377;SDS011;2203;53.686;9.994;2022-10-16T15:36:36;17.73;;;2.00;;
4377;SDS011;2203;53.686;9.994;2022-10-16T15:39:10;5.60;;;1.70;;
4377;SDS011;2203;53.686;9.994;2022-10-16T15:41:38;10.77;;;1.70;;
4377;SDS011;2203;53.686;9.994;2022-10-16T15:44:03;7.17;;;1.90;;
4377;SDS011;2203;53.686;9.994;2022-10-16T15:46:29;12.17;;;1.90;;
4377;SDS011;2203;53.686;9.994;2022-10-16T15:48:56;5.40;;;1.53;;
4377;SDS011;2203;53.686;9.994;2022-10-16T15:51:23;7.77;;;2.33;;
4377;SDS011;2203;53.686;9.994;2022-10-16T15:53:49;10.37;;;2.50;;
4377;SDS011;2203;53.686;9.994;2022-10-16T15:56:15;8.20;;;2.10;;
4377;SDS011;2203;53.686;9.994;2022-10-16T15:58:41;5.80;;;2.70;;
4377;SDS011;2203;53.686;9.994;2022-10-16T16:01:08;6.20;;;2.20;;
4377;SDS011;2203;53.686;9.994;2022-10-16T16:03:35;8.30;;;1.57;;
4377;SDS011;2203;53.686;9.994;2022-10-16T16:06:08;16.60;;;2.43;;
4377;SDS011;2203;53.686;9.994;2022-10-16T16:08:35;8.17;;;2.50;;
4377;SDS011;2203;53.686;9.994;2022-10-16T16:11:07;3.80;;;1.60;;
4377;SDS011;2203;53.686;9.994;2022-10-16T16:13:34;8.93;;;2.10;;
4377;SDS011;2203;53.686;9.994;2022-10-16T16:16:04;5.07;;;1.60;;
4377;SDS011;2203;53.686;9.994;2022-10-16T16:18:30;12.40;;;2.63;;
4377;SDS011;2203;53.686;9.994;2022-10-16T16:20:56;9.77;;;2.60;;
4377;SDS011;2203;53.686;9.994;2022-10-16T16:23:22;12.67;;;2.50;;
4377;SDS011;2203;53.686;9.994;2022-10-16T16:28:34;16.50;;;3.17;;
4377;SDS011;2203;53.686;9.994;2022-10-16T16:31:00;6.77;;;1.93;;
4377;SDS011;2203;53.686;9.994;2022-10-16T16:33:26;6.00;;;2.70;;
4377;SDS011;2203;53.686;9.994;2022-10-16T16:35:55;9.23;;;2.10;;
4377;SDS011;2203;53.686;9.994;2022-10-16T16:38:21;12.40;;;2.53;;
4377;SDS011;2203;53.686;9.994;2022-10-16T16:40:47;8.13;;;2.63;;
4377;SDS011;2203;53.686;9.994;2022-10-16T16:43:12;17.50;;;3.20;;
4377;SDS011;2203;53.686;9.994;2022-10-16T16:45:37;10.20;;;2.80;;
4377;SDS011;2203;53.686;9.994;2022-10-16T16:48:03;13.87;;;2.90;;
4377;SDS011;2203;53.686;9.994;2022-10-16T16:50:31;17.70;;;2.93;;
4377;SDS011;2203;53.686;9.994;2022-10-16T16:53:00;3.70;;;1.90;;
4377;SDS011;2203;53.686;9.994;2022-10-16T16:55:25;16.73;;;3.40;;
4377;SDS011;2203;53.686;9.994;2022-10-16T16:57:51;9.50;;;2.70;;
4377;SDS011;2203;53.686;9.994;2022-10-16T17:00:16;7.80;;;2.23;;
4377;SDS011;2203;53.686;9.994;2022-10-16T17:02:41;10.80;;;2.60;;
4377;SDS011;2203;53.686;9.994;2022-10-16T17:05:08;12.20;;;2.57;;
4377;SDS011;2203;53.686;9.994;2022-10-16T17:07:34;11.20;;;2.90;;
4377;SDS011;2203;53.686;9.994;2022-10-16T17:10:00;11.83;;;4.23;;
4377;SDS011;2203;53.686;9.994;2022-10-16T17:12:26;8.40;;;2.50;;
4377;SDS011;2203;53.686;9.994;2022-10-16T17:14:54;10.63;;;2.13;;
4377;SDS011;2203;53.686;9.994;2022-10-16T17:17:19;14.27;;;3.10;;
4377;SDS011;2203;53.686;9.994;2022-10-16T17:19:44;13.33;;;2.90;;
4377;SDS011;2203;53.686;9.994;2022-10-16T17:22:10;10.17;;;2.80;;
4377;SDS011;2203;53.686;9.994;2022-10-16T17:24:35;11.90;;;3.10;;
4377;SDS011;2203;53.686;9.994;2022-10-16T17:27:01;11.33;;;3.43;;
4377;SDS011;2203;53.686;9.994;2022-10-16T17:29:26;10.40;;;3.10;;
4377;SDS011;2203;53.686;9.994;2022-10-16T17:31:51;7.80;;;2.90;;
4377;SDS011;2203;53.686;9.994;2022-10-16T17:34:17;4.77;;;2.37;;
4377;SDS011;2203;53.686;9.994;2022-10-16T17:36:42;10.90;;;2.90;;